sensor_id;sensor_type;location;lat;lon;timestamp;P1;durP1;ratioP1;P2;durP2;ratioP2
55647;SDS011;45266;48.756;9.246;2023-07-30T00:01:07;3.95;;;2.80;;
55647;SDS011;45266;48.756;9.246;2023-07-30T00:02:09;4.97;;;2.30;;
55647;SDS011;45266;48.756;9.246;2023-07-30T00:03:11;3.88;;;2.60;;
55647;SDS011;45266;48.756;9.246;2023-07-30T00:04:13;4.28;;;2.42;;
55647;SDS011;45266;48.756;9.246;2023-07-30T00:05:16;4.97;;;2.90;;
55647;SDS011;45266;48.756;9.246;2023-07-30T00:06:23;4.28;;;2.72;;
55647;SDS011;45266;48.756;9.246;2023-07-30T00:07:35;5.13;;;3.15;;
55647;SDS011;45266;48.756;9.246;2023-07-30T00:08:45;5.25;;;3.00;;
55647;SDS011;45266;48.756;9.246;2023-07-30T00:09:47;4.45;;;2.58;;
55647;SDS011;45266;48.756;9.246;2023-07-30T00:10:50;3.80;;;2.22;;
55647;SDS011;45266;48.756;9.246;2023-07-30T00:11:53;5.60;;;2.97;;
55647;SDS011;45266;48.756;9.246;2023-07-30T00:12:57;3.25;;;2.90;;
55647;SDS011;45266;48.756;9.246;2023-07-30T00:14:01;8.13;;;3.10;;
55647;SDS011;45266;48.756;9.246;2023-07-30T00:15:30;4.18;;;2.65;;
55647;SDS011;45266;48.756;9.246;2023-07-30T00:16:36;4.07;;;2.38;;
55647;SDS011;45266;48.756;9.246;2023-07-30T00:17:40;8.88;;;3.00;;
55647;SDS011;45266;48.756;9.246;2023-07-30T00:18:42;9.05;;;2.80;;
55647;SDS011;45266;48.756;9.246;2023-07-30T00:19:44;11.00;;;3.13;;
55647;SDS011;45266;48.756;9.246;2023-07-30T00:20:46;4.22;;;2.80;;
55647;SDS011;45266;48.756;9.246;2023-07-30T00:21:50;5.38;;;2.55;;
55647;SDS011;45266;48.756;9.246;2023-07-30T00:23:03;4.68;;;2.45;;
55647;SDS011;45266;48.756;9.246;2023-07-30T00:24:36;5.75;;;2.92;;
55647;SDS011;45266;48.756;9.246;2023-07-30T00:25:41;5.25;;;2.22;;
55647;SDS011;45266;48.756;9.246;2023-07-30T00:26:47;3.47;;;2.20;;
55647;SDS011;45266;48.756;9.246;2023-07-30T00:27:56;6.63;;;2.45;;
55647;SDS011;45266;48.756;9.246;2023-07-30T00:29:01;2.95;;;2.10;;
55647;SDS011;45266;48.756;9.246;2023-07-30T00:30:11;3.22;;;2.22;;
55647;SDS011;45266;48.756;9.246;2023-07-30T00:31:19;2.33;;;2.13;;
55647;SDS011;45266;48.756;9.246;2023-07-30T00:32:21;2.88;;;2.20;;
55647;SDS011;45266;48.756;9.246;2023-07-30T00:33:25;6.10;;;1.98;;
55647;SDS011;45266;48.756;9.246;2023-07-30T00:34:27;3.17;;;1.90;;
55647;SDS011;45266;48.756;9.246;2023-07-30T00:35:32;3.13;;;2.03;;
55647;SDS011;45266;48.756;9.246;2023-07-30T00:36:34;3.83;;;1.98;;
55647;SDS011;45266;48.756;9.246;2023-07-30T00:37:36;3.08;;;1.98;;
55647;SDS011;45266;48.756;9.246;2023-07-30T00:38:41;5.40;;;2.45;;
55647;SDS011;45266;48.756;9.246;2023-07-30T00:39:45;2.50;;;2.05;;
55647;SDS011;45266;48.756;9.246;2023-07-30T00:40:47;2.70;;;2.15;;
55647;SDS011;45266;48.756;9.246;2023-07-30T00:41:49;2.72;;;1.70;;
55647;SDS011;45266;48.756;9.246;2023-07-30T00:42:52;4.82;;;2.15;;
55647;SDS011;45266;48.756;9.246;2023-07-30T00:43:54;4.97;;;2.13;;
55647;SDS011;45266;48.756;9.246;2023-07-30T00:44:57;4.80;;;2.30;;
55647;SDS011;45266;48.756;9.246;2023-07-30T00:46:13;4.55;;;2.00;;
55647;SDS011;45266;48.756;9.246;2023-07-30T00:47:16;2.67;;;2.20;;
55647;SDS011;45266;48.756;9.246;2023-07-30T00:48:20;5.63;;;2.30;;
55647;SDS011;45266;48.756;9.246;2023-07-30T00:49:22;3.17;;;2.35;;
55647;SDS011;45266;48.756;9.246;2023-07-30T00:50:26;3.97;;;2.17;;
55647;SDS011;45266;48.756;9.246;2023-07-30T00:51:39;2.85;;;2.00;;
55647;SDS011;45266;48.756;9.246;2023-07-30T00:52:55;3.45;;;2.20;;
55647;SDS011;45266;48.756;9.246;2023-07-30T00:54:08;4.10;;;2.20;;
55647;SDS011;45266;48.756;9.246;2023-07-30T00:55:21;3.58;;;2.28;;
55647;SDS011;45266;48.756;9.246;2023-07-30T00:56:35;2.70;;;2.08;;
55647;SDS011;45266;48.756;9.246;2023-07-30T00:57:50;3.58;;;2.10;;
55647;SDS011;45266;48.756;9.246;2023-07-30T00:59:04;2.17;;;1.70;;
55647;SDS011;45266;48.756;9.246;2023-07-30T01:00:19;5.07;;;1.92;;
55647;SDS011;45266;48.756;9.246;2023-07-30T01:01:32;3.08;;;1.83;;
55647;SDS011;45266;48.756;9.246;2023-07-30T01:02:50;2.72;;;2.00;;
55647;SDS011;45266;48.756;9.246;2023-07-30T01:04:00;2.65;;;2.03;;
55647;SDS011;45266;48.756;9.246;2023-07-30T01:05:12;4.35;;;2.25;;
55647;SDS011;45266;48.756;9.246;2023-07-30T01:06:24;3.75;;;2.22;;
55647;SDS011;45266;48.756;9.246;2023-07-30T01:07:37;2.78;;;2.20;;
55647;SDS011;45266;48.756;9.246;2023-07-30T01:08:49;3.47;;;2.03;;
55647;SDS011;45266;48.756;9.246;2023-07-30T01:10:00;3.45;;;2.17;;
55647;SDS011;45266;48.756;9.246;2023-07-30T01:11:14;5.53;;;2.67;;
55647;SDS011;45266;48.756;9.246;2023-07-30T01:12:30;7.63;;;2.58;;
55647;SDS011;45266;48.756;9.246;2023-07-30T01:13:46;2.67;;;2.03;;
55647;SDS011;45266;48.756;9.246;2023-07-30T01:15:00;2.97;;;2.28;;
55647;SDS011;45266;48.756;9.246;2023-07-30T01:16:15;4.93;;;2.35;;
55647;SDS011;45266;48.756;9.246;2023-07-30T01:17:25;3.17;;;2.42;;
55647;SDS011;45266;48.756;9.246;2023-07-30T01:18:27;3.15;;;2.58;;
55647;SDS011;45266;48.756;9.246;2023-07-30T01:19:29;3.40;;;2.35;;
55647;SDS011;45266;48.756;9.246;2023-07-30T01:20:32;3.45;;;2.65;;
55647;SDS011;45266;48.756;9.246;2023-07-30T01:21:34;3.17;;;2.83;;
55647;SDS011;45266;48.756;9.246;2023-07-30T01:22:37;2.90;;;2.42;;
55647;SDS011;45266;48.756;9.246;2023-07-30T01:23:39;2.90;;;2.60;;
55647;SDS011;45266;48.756;9.246;2023-07-30T01:24:42;5.72;;;2.72;;
55647;SDS011;45266;48.756;9.246;2023-07-30T01:25:44;3.08;;;2.50;;
55647;SDS011;45266;48.756;9.246;2023-07-30T01:26:57;2.90;;;2.60;;
55647;SDS011;45266;48.756;9.246;2023-07-30T01:28:04;5.10;;;3.13;;
55647;SDS011;45266;48.756;9.246;2023-07-30T01:29:31;4.32;;;2.65;;
55647;SDS011;45266;48.756;9.246;2023-07-30T01:30:42;4.50;;;2.80;;
55647;SDS011;45266;48.756;9.246;2023-07-30T01:32:02;4.32;;;2.90;;
55647;SDS011;45266;48.756;9.246;2023-07-30T01:33:18;3.60;;;2.55;;
55647;SDS011;45266;48.756;9.246;2023-07-30T01:34:25;4.78;;;2.72;;
55647;SDS011;45266;48.756;9.246;2023-07-30T01:35:29;5.13;;;2.67;;
55647;SDS011;45266;48.756;9.246;2023-07-30T01:36:32;3.67;;;2.60;;
55647;SDS011;45266;48.756;9.246;2023-07-30T01:37:35;4.13;;;2.70;;
55647;SDS011;45266;48.756;9.246;2023-07-30T01:38:42;3.75;;;2.70;;
55647;SDS011;45266;48.756;9.246;2023-07-30T01:39:55;5.97;;;2.75;;
55647;SDS011;45266;48.756;9.246;2023-07-30T01:41:08;2.92;;;2.60;;
55647;SDS011;45266;48.756;9.246;2023-07-30T01:42:15;3.30;;;2.60;;
55647;SDS011;45266;48.756;9.246;2023-07-30T01:43:22;3.78;;;2.60;;
55647;SDS011;45266;48.756;9.246;2023-07-30T01:44:28;5.80;;;2.70;;
55647;SDS011;45266;48.756;9.246;2023-07-30T01:45:30;4.55;;;2.80;;
55647;SDS011;45266;48.756;9.246;2023-07-30T01:46:35;3.22;;;2.80;;
55647;SDS011;45266;48.756;9.246;2023-07-30T01:47:50;3.83;;;2.78;;
55647;SDS011;45266;48.756;9.246;2023-07-30T01:49:00;5.88;;;2.90;;
55647;SDS011;45266;48.756;9.246;2023-07-30T01:50:07;4.68;;;3.40;;
55647;SDS011;45266;48.756;9.246;2023-07-30T01:51:15;5.05;;;3.00;;
55647;SDS011;45266;48.756;9.246;2023-07-30T01:52:27;3.90;;;3.38;;
55647;SDS011;45266;48.756;9.246;2023-07-30T01:53:30;6.13;;;3.00;;
55647;SDS011;45266;48.756;9.246;2023-07-30T01:54:37;4.75;;;2.65;;
55647;SDS011;45266;48.756;9.246;2023-07-30T01:55:43;3.80;;;2.88;;
55647;SDS011;45266;48.756;9.246;2023-07-30T01:56:51;5.15;;;2.70;;
55647;SDS011;45266;48.756;9.246;2023-07-30T01:57:54;3.90;;;2.88;;
55647;SDS011;45266;48.756;9.246;2023-07-30T01:58:56;2.50;;;2.30;;
55647;SDS011;45266;48.756;9.246;2023-07-30T01:59:58;3.65;;;2.97;;
55647;SDS011;45266;48.756;9.246;2023-07-30T02:01:00;3.40;;;2.72;;
55647;SDS011;45266;48.756;9.246;2023-07-30T02:02:02;3.28;;;2.97;;
55647;SDS011;45266;48.756;9.246;2023-07-30T02:03:05;6.60;;;3.00;;
55647;SDS011;45266;48.756;9.246;2023-07-30T02:04:10;3.35;;;2.95;;
55647;SDS011;45266;48.756;9.246;2023-07-30T02:05:25;5.05;;;3.20;;
55647;SDS011;45266;48.756;9.246;2023-07-30T02:06:30;3.35;;;2.80;;
55647;SDS011;45266;48.756;9.246;2023-07-30T02:07:34;5.18;;;2.90;;
55647;SDS011;45266;48.756;9.246;2023-07-30T02:08:48;6.30;;;3.15;;
55647;SDS011;45266;48.756;9.246;2023-07-30T02:10:01;3.40;;;3.10;;
55647;SDS011;45266;48.756;9.246;2023-07-30T02:11:15;6.07;;;3.08;;
55647;SDS011;45266;48.756;9.246;2023-07-30T02:12:22;4.28;;;3.20;;
55647;SDS011;45266;48.756;9.246;2023-07-30T02:13:29;4.18;;;3.53;;
55647;SDS011;45266;48.756;9.246;2023-07-30T02:14:32;4.55;;;3.33;;
55647;SDS011;45266;48.756;9.246;2023-07-30T02:15:39;5.65;;;3.35;;
55647;SDS011;45266;48.756;9.246;2023-07-30T02:16:45;5.55;;;3.35;;
55647;SDS011;45266;48.756;9.246;2023-07-30T02:17:49;3.40;;;3.10;;
55647;SDS011;45266;48.756;9.246;2023-07-30T02:19:03;4.43;;;3.28;;
55647;SDS011;45266;48.756;9.246;2023-07-30T02:20:14;4.05;;;3.05;;
55647;SDS011;45266;48.756;9.246;2023-07-30T02:21:18;4.68;;;3.22;;
55647;SDS011;45266;48.756;9.246;2023-07-30T02:22:32;3.38;;;3.08;;
55647;SDS011;45266;48.756;9.246;2023-07-30T02:23:45;6.80;;;3.75;;
55647;SDS011;45266;48.756;9.246;2023-07-30T02:24:53;4.18;;;3.50;;
55647;SDS011;45266;48.756;9.246;2023-07-30T02:25:58;3.50;;;3.20;;
55647;SDS011;45266;48.756;9.246;2023-07-30T02:27:01;4.47;;;3.35;;
55647;SDS011;45266;48.756;9.246;2023-07-30T02:28:06;4.25;;;3.55;;
55647;SDS011;45266;48.756;9.246;2023-07-30T02:29:11;3.30;;;3.00;;
55647;SDS011;45266;48.756;9.246;2023-07-30T02:30:26;3.83;;;3.53;;
55647;SDS011;45266;48.756;9.246;2023-07-30T02:31:40;3.70;;;3.10;;
55647;SDS011;45266;48.756;9.246;2023-07-30T02:32:51;3.92;;;2.88;;
55647;SDS011;45266;48.756;9.246;2023-07-30T02:34:04;3.30;;;3.00;;
55647;SDS011;45266;48.756;9.246;2023-07-30T02:35:16;3.17;;;2.83;;
55647;SDS011;45266;48.756;9.246;2023-07-30T02:36:29;3.70;;;3.20;;
55647;SDS011;45266;48.756;9.246;2023-07-30T02:37:41;3.60;;;3.08;;
55647;SDS011;45266;48.756;9.246;2023-07-30T02:38:52;5.22;;;3.15;;
55647;SDS011;45266;48.756;9.246;2023-07-30T02:40:03;3.30;;;3.00;;
55647;SDS011;45266;48.756;9.246;2023-07-30T02:41:14;4.15;;;3.00;;
55647;SDS011;45266;48.756;9.246;2023-07-30T02:42:26;4.95;;;3.60;;
55647;SDS011;45266;48.756;9.246;2023-07-30T02:43:39;5.95;;;3.80;;
55647;SDS011;45266;48.756;9.246;2023-07-30T02:44:44;4.57;;;3.75;;
55647;SDS011;45266;48.756;9.246;2023-07-30T02:45:47;6.63;;;4.03;;
55647;SDS011;45266;48.756;9.246;2023-07-30T02:46:50;3.80;;;3.05;;
55647;SDS011;45266;48.756;9.246;2023-07-30T02:47:52;3.70;;;3.25;;
55647;SDS011;45266;48.756;9.246;2023-07-30T02:48:54;4.82;;;3.47;;
55647;SDS011;45266;48.756;9.246;2023-07-30T02:49:56;5.32;;;3.60;;
55647;SDS011;45266;48.756;9.246;2023-07-30T02:50:57;3.47;;;3.17;;
55647;SDS011;45266;48.756;9.246;2023-07-30T02:52:00;3.90;;;3.13;;
55647;SDS011;45266;48.756;9.246;2023-07-30T02:53:06;7.80;;;3.83;;
55647;SDS011;45266;48.756;9.246;2023-07-30T02:54:09;7.50;;;3.25;;
55647;SDS011;45266;48.756;9.246;2023-07-30T02:55:15;3.28;;;2.97;;
55647;SDS011;45266;48.756;9.246;2023-07-30T02:56:17;4.38;;;3.20;;
55647;SDS011;45266;48.756;9.246;2023-07-30T02:57:21;4.53;;;3.13;;
55647;SDS011;45266;48.756;9.246;2023-07-30T02:58:31;4.82;;;3.30;;
55647;SDS011;45266;48.756;9.246;2023-07-30T02:59:37;4.63;;;3.20;;
55647;SDS011;45266;48.756;9.246;2023-07-30T03:00:39;7.32;;;3.53;;
55647;SDS011;45266;48.756;9.246;2023-07-30T03:01:42;3.97;;;3.30;;
55647;SDS011;45266;48.756;9.246;2023-07-30T03:02:48;3.58;;;3.28;;
55647;SDS011;45266;48.756;9.246;2023-07-30T03:03:53;3.33;;;2.90;;
55647;SDS011;45266;48.756;9.246;2023-07-30T03:04:55;4.10;;;2.88;;
55647;SDS011;45266;48.756;9.246;2023-07-30T03:05:58;5.97;;;3.28;;
55647;SDS011;45266;48.756;9.246;2023-07-30T03:07:00;4.25;;;3.30;;
55647;SDS011;45266;48.756;9.246;2023-07-30T03:08:02;3.72;;;3.00;;
55647;SDS011;45266;48.756;9.246;2023-07-30T03:09:05;4.32;;;3.42;;
55647;SDS011;45266;48.756;9.246;2023-07-30T03:10:08;5.10;;;3.50;;
55647;SDS011;45266;48.756;9.246;2023-07-30T03:11:16;4.80;;;3.28;;
55647;SDS011;45266;48.756;9.246;2023-07-30T03:12:28;3.55;;;3.00;;
55647;SDS011;45266;48.756;9.246;2023-07-30T03:13:41;4.00;;;2.90;;
55647;SDS011;45266;48.756;9.246;2023-07-30T03:14:47;4.95;;;3.08;;
55647;SDS011;45266;48.756;9.246;2023-07-30T03:15:53;4.88;;;3.10;;
55647;SDS011;45266;48.756;9.246;2023-07-30T03:17:00;3.20;;;2.90;;
55647;SDS011;45266;48.756;9.246;2023-07-30T03:18:11;4.50;;;2.80;;
55647;SDS011;45266;48.756;9.246;2023-07-30T03:19:16;5.22;;;2.92;;
55647;SDS011;45266;48.756;9.246;2023-07-30T03:20:21;5.47;;;3.15;;
55647;SDS011;45266;48.756;9.246;2023-07-30T03:21:24;4.95;;;3.30;;
55647;SDS011;45266;48.756;9.246;2023-07-30T03:22:26;4.18;;;2.92;;
55647;SDS011;45266;48.756;9.246;2023-07-30T03:23:30;4.15;;;2.67;;
55647;SDS011;45266;48.756;9.246;2023-07-30T03:24:40;3.55;;;3.25;;
55647;SDS011;45266;48.756;9.246;2023-07-30T03:25:46;3.72;;;3.15;;
55647;SDS011;45266;48.756;9.246;2023-07-30T03:27:00;3.83;;;2.80;;
55647;SDS011;45266;48.756;9.246;2023-07-30T03:28:16;3.15;;;2.85;;
55647;SDS011;45266;48.756;9.246;2023-07-30T03:29:31;3.17;;;2.88;;
55647;SDS011;45266;48.756;9.246;2023-07-30T03:30:36;4.65;;;2.83;;
55647;SDS011;45266;48.756;9.246;2023-07-30T03:31:38;4.32;;;3.10;;
55647;SDS011;45266;48.756;9.246;2023-07-30T03:32:40;5.95;;;3.00;;
55647;SDS011;45266;48.756;9.246;2023-07-30T03:33:44;3.50;;;3.15;;
55647;SDS011;45266;48.756;9.246;2023-07-30T03:34:54;4.25;;;2.88;;
55647;SDS011;45266;48.756;9.246;2023-07-30T03:36:02;4.82;;;3.05;;
55647;SDS011;45266;48.756;9.246;2023-07-30T03:37:09;4.10;;;2.97;;
55647;SDS011;45266;48.756;9.246;2023-07-30T03:38:11;7.40;;;2.97;;
55647;SDS011;45266;48.756;9.246;2023-07-30T03:39:13;3.53;;;2.53;;
55647;SDS011;45266;48.756;9.246;2023-07-30T03:40:19;3.00;;;2.70;;
55647;SDS011;45266;48.756;9.246;2023-07-30T03:41:25;4.63;;;2.83;;
55647;SDS011;45266;48.756;9.246;2023-07-30T03:42:30;2.95;;;2.55;;
55647;SDS011;45266;48.756;9.246;2023-07-30T03:43:34;5.00;;;2.50;;
55647;SDS011;45266;48.756;9.246;2023-07-30T03:44:37;3.53;;;2.42;;
55647;SDS011;45266;48.756;9.246;2023-07-30T03:45:39;6.10;;;2.70;;
55647;SDS011;45266;48.756;9.246;2023-07-30T03:46:41;5.03;;;3.00;;
55647;SDS011;45266;48.756;9.246;2023-07-30T03:47:43;6.47;;;3.03;;
55647;SDS011;45266;48.756;9.246;2023-07-30T03:48:46;4.60;;;2.50;;
55647;SDS011;45266;48.756;9.246;2023-07-30T03:49:49;4.85;;;3.00;;
55647;SDS011;45266;48.756;9.246;2023-07-30T03:50:53;3.50;;;2.83;;
55647;SDS011;45266;48.756;9.246;2023-07-30T03:51:56;3.42;;;3.13;;
55647;SDS011;45266;48.756;9.246;2023-07-30T03:52:58;4.82;;;3.00;;
55647;SDS011;45266;48.756;9.246;2023-07-30T03:54:00;3.67;;;2.88;;
55647;SDS011;45266;48.756;9.246;2023-07-30T03:55:02;4.18;;;2.83;;
55647;SDS011;45266;48.756;9.246;2023-07-30T03:56:04;3.72;;;2.63;;
55647;SDS011;45266;48.756;9.246;2023-07-30T03:57:06;3.72;;;2.50;;
55647;SDS011;45266;48.756;9.246;2023-07-30T03:58:08;4.63;;;2.60;;
55647;SDS011;45266;48.756;9.246;2023-07-30T03:59:11;3.10;;;2.80;;
55647;SDS011;45266;48.756;9.246;2023-07-30T04:00:17;3.63;;;2.88;;
55647;SDS011;45266;48.756;9.246;2023-07-30T04:01:23;4.07;;;2.90;;
55647;SDS011;45266;48.756;9.246;2023-07-30T04:02:26;3.70;;;3.15;;
55647;SDS011;45266;48.756;9.246;2023-07-30T04:03:35;7.80;;;2.92;;
55647;SDS011;45266;48.756;9.246;2023-07-30T04:04:48;5.47;;;3.30;;
55647;SDS011;45266;48.756;9.246;2023-07-30T04:05:53;3.50;;;3.15;;
55647;SDS011;45266;48.756;9.246;2023-07-30T04:06:55;5.35;;;3.10;;
55647;SDS011;45266;48.756;9.246;2023-07-30T04:07:58;5.25;;;3.40;;
55647;SDS011;45266;48.756;9.246;2023-07-30T04:09:00;3.97;;;3.35;;
55647;SDS011;45266;48.756;9.246;2023-07-30T04:10:02;3.88;;;3.47;;
55647;SDS011;45266;48.756;9.246;2023-07-30T04:11:04;4.15;;;3.50;;
55647;SDS011;45266;48.756;9.246;2023-07-30T04:12:06;7.60;;;5.22;;
55647;SDS011;45266;48.756;9.246;2023-07-30T04:13:08;11.13;;;6.50;;
55647;SDS011;45266;48.756;9.246;2023-07-30T04:14:11;7.75;;;4.95;;
55647;SDS011;45266;48.756;9.246;2023-07-30T04:15:14;8.05;;;3.65;;
55647;SDS011;45266;48.756;9.246;2023-07-30T04:16:16;4.20;;;3.35;;
55647;SDS011;45266;48.756;9.246;2023-07-30T04:17:19;9.80;;;3.60;;
55647;SDS011;45266;48.756;9.246;2023-07-30T04:18:21;5.85;;;3.20;;
55647;SDS011;45266;48.756;9.246;2023-07-30T04:19:24;5.00;;;3.40;;
55647;SDS011;45266;48.756;9.246;2023-07-30T04:20:26;4.95;;;2.55;;
55647;SDS011;45266;48.756;9.246;2023-07-30T04:21:29;5.72;;;2.80;;
55647;SDS011;45266;48.756;9.246;2023-07-30T04:22:31;6.47;;;3.08;;
55647;SDS011;45266;48.756;9.246;2023-07-30T04:23:33;6.35;;;2.60;;
55647;SDS011;45266;48.756;9.246;2023-07-30T04:24:36;3.75;;;3.20;;
55647;SDS011;45266;48.756;9.246;2023-07-30T04:25:40;4.72;;;3.45;;
55647;SDS011;45266;48.756;9.246;2023-07-30T04:26:52;4.20;;;3.20;;
55647;SDS011;45266;48.756;9.246;2023-07-30T04:28:04;4.82;;;3.42;;
55647;SDS011;45266;48.756;9.246;2023-07-30T04:29:14;4.47;;;3.33;;
55647;SDS011;45266;48.756;9.246;2023-07-30T04:30:27;4.43;;;3.70;;
55647;SDS011;45266;48.756;9.246;2023-07-30T04:31:39;4.32;;;3.05;;
55647;SDS011;45266;48.756;9.246;2023-07-30T04:32:51;6.38;;;3.20;;
55647;SDS011;45266;48.756;9.246;2023-07-30T04:34:01;3.83;;;3.53;;
55647;SDS011;45266;48.756;9.246;2023-07-30T04:35:12;7.75;;;3.45;;
55647;SDS011;45266;48.756;9.246;2023-07-30T04:36:25;8.15;;;3.97;;
55647;SDS011;45266;48.756;9.246;2023-07-30T04:37:38;4.30;;;3.50;;
55647;SDS011;45266;48.756;9.246;2023-07-30T04:38:49;4.88;;;3.70;;
55647;SDS011;45266;48.756;9.246;2023-07-30T04:39:56;4.45;;;3.33;;
55647;SDS011;45266;48.756;9.246;2023-07-30T04:41:09;6.53;;;2.72;;
55647;SDS011;45266;48.756;9.246;2023-07-30T04:42:21;4.90;;;3.38;;
55647;SDS011;45266;48.756;9.246;2023-07-30T04:43:34;3.63;;;3.25;;
55647;SDS011;45266;48.756;9.246;2023-07-30T04:44:45;3.42;;;3.10;;
55647;SDS011;45266;48.756;9.246;2023-07-30T04:45:57;4.85;;;3.45;;
55647;SDS011;45266;48.756;9.246;2023-07-30T04:47:04;5.13;;;3.20;;
55647;SDS011;45266;48.756;9.246;2023-07-30T04:48:16;3.45;;;3.13;;
55647;SDS011;45266;48.756;9.246;2023-07-30T04:49:24;4.85;;;3.30;;
55647;SDS011;45266;48.756;9.246;2023-07-30T04:50:30;5.22;;;3.08;;
55647;SDS011;45266;48.756;9.246;2023-07-30T04:51:41;4.32;;;3.10;;
55647;SDS011;45266;48.756;9.246;2023-07-30T04:52:47;3.90;;;3.42;;
55647;SDS011;45266;48.756;9.246;2023-07-30T04:53:51;3.50;;;3.20;;
55647;SDS011;45266;48.756;9.246;2023-07-30T04:54:54;6.13;;;3.17;;
55647;SDS011;45266;48.756;9.246;2023-07-30T04:55:57;4.45;;;3.10;;
55647;SDS011;45266;48.756;9.246;2023-07-30T04:57:07;4.35;;;2.75;;
55647;SDS011;45266;48.756;9.246;2023-07-30T04:58:13;5.63;;;2.83;;
55647;SDS011;45266;48.756;9.246;2023-07-30T04:59:25;3.35;;;2.92;;
55647;SDS011;45266;48.756;9.246;2023-07-30T05:00:27;4.20;;;2.70;;
55647;SDS011;45266;48.756;9.246;2023-07-30T05:01:30;6.18;;;3.20;;
55647;SDS011;45266;48.756;9.246;2023-07-30T05:02:35;5.00;;;4.35;;
55647;SDS011;45266;48.756;9.246;2023-07-30T05:03:47;5.57;;;3.15;;
55647;SDS011;45266;48.756;9.246;2023-07-30T05:05:00;3.70;;;2.95;;
55647;SDS011;45266;48.756;9.246;2023-07-30T05:06:11;3.85;;;3.40;;
55647;SDS011;45266;48.756;9.246;2023-07-30T05:07:15;3.80;;;2.97;;
55647;SDS011;45266;48.756;9.246;2023-07-30T05:08:17;4.75;;;3.17;;
55647;SDS011;45266;48.756;9.246;2023-07-30T05:09:19;5.13;;;3.10;;
55647;SDS011;45266;48.756;9.246;2023-07-30T05:10:21;4.18;;;3.28;;
55647;SDS011;45266;48.756;9.246;2023-07-30T05:11:26;4.03;;;2.90;;
55647;SDS011;45266;48.756;9.246;2023-07-30T05:12:32;3.20;;;2.90;;
55647;SDS011;45266;48.756;9.246;2023-07-30T05:13:42;4.35;;;3.00;;
55647;SDS011;45266;48.756;9.246;2023-07-30T05:14:52;4.78;;;3.25;;
55647;SDS011;45266;48.756;9.246;2023-07-30T05:15:56;2.90;;;2.55;;
55647;SDS011;45266;48.756;9.246;2023-07-30T05:17:02;4.57;;;3.00;;
55647;SDS011;45266;48.756;9.246;2023-07-30T05:18:06;3.50;;;3.20;;
55647;SDS011;45266;48.756;9.246;2023-07-30T05:19:16;12.90;;;3.75;;
55647;SDS011;45266;48.756;9.246;2023-07-30T05:20:19;4.72;;;2.85;;
55647;SDS011;45266;48.756;9.246;2023-07-30T05:21:26;4.55;;;3.05;;
55647;SDS011;45266;48.756;9.246;2023-07-30T05:22:30;4.35;;;2.85;;
55647;SDS011;45266;48.756;9.246;2023-07-30T05:23:32;3.40;;;2.95;;
55647;SDS011;45266;48.756;9.246;2023-07-30T05:24:35;5.35;;;3.20;;
55647;SDS011;45266;48.756;9.246;2023-07-30T05:25:39;5.82;;;3.17;;
55647;SDS011;45266;48.756;9.246;2023-07-30T05:26:42;5.50;;;3.70;;
55647;SDS011;45266;48.756;9.246;2023-07-30T05:27:47;3.30;;;3.00;;
55647;SDS011;45266;48.756;9.246;2023-07-30T05:28:49;4.10;;;3.10;;
55647;SDS011;45266;48.756;9.246;2023-07-30T05:29:55;4.78;;;3.30;;
55647;SDS011;45266;48.756;9.246;2023-07-30T05:31:11;7.18;;;3.42;;
55647;SDS011;45266;48.756;9.246;2023-07-30T05:32:14;3.38;;;3.05;;
55647;SDS011;45266;48.756;9.246;2023-07-30T05:33:17;3.97;;;3.00;;
55647;SDS011;45266;48.756;9.246;2023-07-30T05:34:21;4.05;;;3.10;;
55647;SDS011;45266;48.756;9.246;2023-07-30T05:35:36;5.82;;;2.92;;
55647;SDS011;45266;48.756;9.246;2023-07-30T05:36:39;4.47;;;3.10;;
55647;SDS011;45266;48.756;9.246;2023-07-30T05:37:42;5.47;;;3.35;;
55647;SDS011;45266;48.756;9.246;2023-07-30T05:38:48;4.80;;;3.33;;
55647;SDS011;45266;48.756;9.246;2023-07-30T05:39:58;6.65;;;2.95;;
55647;SDS011;45266;48.756;9.246;2023-07-30T05:41:03;6.63;;;3.28;;
55647;SDS011;45266;48.756;9.246;2023-07-30T05:42:07;5.97;;;2.90;;
55647;SDS011;45266;48.756;9.246;2023-07-30T05:43:12;4.80;;;2.95;;
55647;SDS011;45266;48.756;9.246;2023-07-30T05:44:16;3.40;;;3.08;;
55647;SDS011;45266;48.756;9.246;2023-07-30T05:45:18;3.22;;;2.55;;
55647;SDS011;45266;48.756;9.246;2023-07-30T05:46:21;2.80;;;2.60;;
55647;SDS011;45266;48.756;9.246;2023-07-30T05:47:27;3.85;;;2.70;;
55647;SDS011;45266;48.756;9.246;2023-07-30T05:48:32;3.83;;;3.00;;
55647;SDS011;45266;48.756;9.246;2023-07-30T05:49:44;3.80;;;3.05;;
55647;SDS011;45266;48.756;9.246;2023-07-30T05:50:46;3.22;;;2.92;;
55647;SDS011;45266;48.756;9.246;2023-07-30T05:51:48;5.05;;;3.28;;
55647;SDS011;45266;48.756;9.246;2023-07-30T05:52:52;9.05;;;3.03;;
55647;SDS011;45266;48.756;9.246;2023-07-30T05:54:00;4.13;;;3.10;;
55647;SDS011;45266;48.756;9.246;2023-07-30T05:55:02;3.08;;;2.88;;
55647;SDS011;45266;48.756;9.246;2023-07-30T05:56:04;4.30;;;2.78;;
55647;SDS011;45266;48.756;9.246;2023-07-30T05:57:08;5.15;;;3.00;;
55647;SDS011;45266;48.756;9.246;2023-07-30T05:58:30;3.58;;;2.97;;
55647;SDS011;45266;48.756;9.246;2023-07-30T05:59:32;3.08;;;2.78;;
55647;SDS011;45266;48.756;9.246;2023-07-30T06:00:37;6.57;;;3.08;;
55647;SDS011;45266;48.756;9.246;2023-07-30T06:01:43;5.95;;;3.08;;
55647;SDS011;45266;48.756;9.246;2023-07-30T06:02:57;4.15;;;3.33;;
55647;SDS011;45266;48.756;9.246;2023-07-30T06:04:09;4.13;;;3.53;;
55647;SDS011;45266;48.756;9.246;2023-07-30T06:05:23;3.47;;;3.17;;
55647;SDS011;45266;48.756;9.246;2023-07-30T06:06:35;4.53;;;3.33;;
55647;SDS011;45266;48.756;9.246;2023-07-30T06:07:41;4.28;;;3.05;;
55647;SDS011;45266;48.756;9.246;2023-07-30T06:08:46;4.20;;;3.08;;
55647;SDS011;45266;48.756;9.246;2023-07-30T06:09:48;3.53;;;3.20;;
55647;SDS011;45266;48.756;9.246;2023-07-30T06:10:53;4.40;;;3.60;;
55647;SDS011;45266;48.756;9.246;2023-07-30T06:12:09;6.35;;;3.45;;
55647;SDS011;45266;48.756;9.246;2023-07-30T06:13:12;4.22;;;3.08;;
55647;SDS011;45266;48.756;9.246;2023-07-30T06:14:14;3.92;;;3.53;;
55647;SDS011;45266;48.756;9.246;2023-07-30T06:15:16;2.78;;;2.58;;
55647;SDS011;45266;48.756;9.246;2023-07-30T06:16:18;3.67;;;2.90;;
55647;SDS011;45266;48.756;9.246;2023-07-30T06:17:25;3.95;;;2.95;;
55647;SDS011;45266;48.756;9.246;2023-07-30T06:18:39;4.35;;;2.80;;
55647;SDS011;45266;48.756;9.246;2023-07-30T06:19:52;4.28;;;3.10;;
55647;SDS011;45266;48.756;9.246;2023-07-30T06:21:14;2.60;;;2.40;;
55647;SDS011;45266;48.756;9.246;2023-07-30T06:22:27;4.82;;;2.75;;
55647;SDS011;45266;48.756;9.246;2023-07-30T06:23:40;3.25;;;2.92;;
55647;SDS011;45266;48.756;9.246;2023-07-30T06:24:52;4.90;;;2.90;;
55647;SDS011;45266;48.756;9.246;2023-07-30T06:25:54;5.40;;;3.17;;
55647;SDS011;45266;48.756;9.246;2023-07-30T06:26:57;5.70;;;3.03;;
55647;SDS011;45266;48.756;9.246;2023-07-30T06:28:02;3.10;;;2.80;;
55647;SDS011;45266;48.756;9.246;2023-07-30T06:29:05;4.50;;;2.97;;
55647;SDS011;45266;48.756;9.246;2023-07-30T06:30:16;5.22;;;3.33;;
55647;SDS011;45266;48.756;9.246;2023-07-30T06:31:18;4.47;;;3.05;;
55647;SDS011;45266;48.756;9.246;2023-07-30T06:32:20;4.45;;;3.40;;
55647;SDS011;45266;48.756;9.246;2023-07-30T06:33:23;3.28;;;2.95;;
55647;SDS011;45266;48.756;9.246;2023-07-30T06:34:28;4.72;;;2.90;;
55647;SDS011;45266;48.756;9.246;2023-07-30T06:35:32;3.58;;;3.22;;
55647;SDS011;45266;48.756;9.246;2023-07-30T06:36:34;3.50;;;3.20;;
55647;SDS011;45266;48.756;9.246;2023-07-30T06:37:37;3.90;;;3.20;;
55647;SDS011;45266;48.756;9.246;2023-07-30T06:38:38;3.65;;;2.97;;
55647;SDS011;45266;48.756;9.246;2023-07-30T06:39:41;3.42;;;3.13;;
55647;SDS011;45266;48.756;9.246;2023-07-30T06:40:47;4.13;;;2.85;;
55647;SDS011;45266;48.756;9.246;2023-07-30T06:41:53;3.15;;;2.95;;
55647;SDS011;45266;48.756;9.246;2023-07-30T06:43:06;3.35;;;3.05;;